createdAt,value
2018-07-16T00:00:38.630Z,95036.73
2018-07-16T00:03:07.786Z,95035.92
2018-07-16T00:05:36.962Z,95033.00
2018-07-16T00:08:06.459Z,95039.02
2018-07-16T00:10:35.648Z,95033.14
2018-07-16T00:13:04.789Z,95030.19
2018-07-16T00:15:34.142Z,95034.59
2018-07-16T00:18:03.317Z,95034.11
2018-07-16T00:20:32.486Z,95030.72
2018-07-16T00:23:01.675Z,95028.09
2018-07-16T00:25:30.913Z,95027.62
2018-07-16T00:28:00.077Z,95022.20
2018-07-16T00:30:29.237Z,95022.98
2018-07-16T00:32:58.418Z,95022.47
2018-07-16T00:35:27.585Z,95023.58
2018-07-16T00:37:56.837Z,95020.03
2018-07-16T00:40:26.020Z,95023.84
2018-07-16T00:42:55.181Z,95022.73
2018-07-16T00:45:24.361Z,95017.52
2018-07-16T00:47:53.531Z,95016.41
2018-07-16T00:50:22.703Z,95015.47
2018-07-16T00:52:51.854Z,95016.34
2018-07-16T00:55:21.050Z,95016.37
2018-07-16T00:57:50.205Z,95011.20
2018-07-16T01:00:19.561Z,95020.69
2018-07-16T01:02:48.749Z,95011.29
2018-07-16T01:05:17.904Z,95007.28
2018-07-16T01:07:47.065Z,95008.20
2018-07-16T01:10:16.282Z,95006.35
2018-07-16T01:12:45.454Z,95008.87
2018-07-16T01:15:14.618Z,95000.84
2018-07-16T01:17:43.811Z,94999.76
2018-07-16T01:20:12.981Z,95002.05
2018-07-16T01:22:42.237Z,94995.58
2018-07-16T01:25:11.414Z,94999.13
2018-07-16T01:27:40.589Z,94996.30
2018-07-16T01:30:09.754Z,94988.38
2018-07-16T01:32:39.010Z,94989.12
2018-07-16T01:35:08.240Z,94990.36
2018-07-16T01:37:37.600Z,94989.14
2018-07-16T01:40:06.812Z,94976.27
2018-07-16T01:42:35.993Z,94981.17
2018-07-16T01:45:05.202Z,94984.88
2018-07-16T01:47:34.379Z,94983.45
2018-07-16T01:50:03.566Z,94983.50
2018-07-16T01:52:32.736Z,94982.34
2018-07-16T01:55:01.899Z,94983.02
2018-07-16T01:57:31.097Z,94979.86
2018-07-16T02:00:00.249Z,94977.84
2018-07-16T02:02:29.629Z,94975.48
2018-07-16T02:04:59.803Z,94971.35
2018-07-16T02:07:28.994Z,94978.85
2018-07-16T02:09:58.176Z,94976.55
2018-07-16T02:12:27.321Z,94975.66
2018-07-16T02:14:56.476Z,94977.62
2018-07-16T02:17:25.639Z,94974.41
2018-07-16T02:19:54.817Z,94970.58
2018-07-16T02:22:24.192Z,94972.30
2018-07-16T02:24:53.340Z,94976.11
2018-07-16T02:27:22.513Z,94973.19
2018-07-16T02:29:51.691Z,94972.88
2018-07-16T02:32:20.862Z,94965.73
2018-07-16T02:34:50.058Z,94969.66
2018-07-16T02:37:19.222Z,94966.27
2018-07-16T02:39:48.377Z,94960.66
2018-07-16T02:42:17.558Z,94966.58
2018-07-16T02:44:46.721Z,94966.47
2018-07-16T02:47:16.123Z,94968.77
2018-07-16T02:49:45.278Z,94967.50
2018-07-16T02:52:14.458Z,94961.22
2018-07-16T02:54:43.618Z,94964.34
2018-07-16T02:57:12.771Z,94962.48
2018-07-16T02:59:42.101Z,94961.22
2018-07-16T03:02:11.428Z,94958.95
2018-07-16T03:04:40.638Z,94965.11
2018-07-16T03:07:09.798Z,94959.84
2018-07-16T03:09:38.966Z,94968.49
2018-07-16T03:12:08.825Z,94963.28
2018-07-16T03:14:38.043Z,94960.98
2018-07-16T03:17:07.345Z,94964.02
2018-07-16T03:19:36.661Z,94964.14
2018-07-16T03:22:05.938Z,94959.08
2018-07-16T03:24:35.103Z,94956.48
2018-07-16T03:27:04.465Z,94957.44
2018-07-16T03:29:33.692Z,94963.14
2018-07-16T03:32:02.873Z,94963.33
2018-07-16T03:34:32.042Z,94963.03
2018-07-16T03:37:01.325Z,94960.58
2018-07-16T03:39:30.687Z,94955.22
2018-07-16T03:42:00.081Z,94954.52
2018-07-16T03:44:29.452Z,94959.22
2018-07-16T03:46:58.659Z,94947.13
2018-07-16T03:49:27.833Z,94950.36
2018-07-16T03:51:57.053Z,94944.73
2018-07-16T03:54:26.233Z,94946.88
2018-07-16T03:56:55.534Z,94945.06
2018-07-16T03:59:24.714Z,94941.95
2018-07-16T04:01:53.937Z,94949.67
2018-07-16T04:04:23.148Z,94951.38
2018-07-16T04:06:52.315Z,94947.21
2018-07-16T04:09:21.487Z,94943.20
2018-07-16T04:11:50.667Z,94943.77
2018-07-16T04:14:20.172Z,94942.75
2018-07-16T04:16:49.348Z,94941.06
2018-07-16T04:19:18.520Z,94943.13
2018-07-16T04:21:47.714Z,94942.69
2018-07-16T04:24:16.885Z,94946.83
2018-07-16T04:26:46.160Z,94944.12
2018-07-16T04:29:15.328Z,94947.80
2018-07-16T04:31:44.486Z,94942.95
2018-07-16T04:34:13.651Z,94936.83
2018-07-16T04:36:42.805Z,94934.88
2018-07-16T04:39:11.974Z,94934.69
2018-07-16T04:41:41.144Z,94938.77
2018-07-16T04:44:10.310Z,94935.41
2018-07-16T04:46:39.684Z,94938.77
2018-07-16T04:49:08.850Z,94935.14
2018-07-16T04:51:38.007Z,94934.80
2018-07-16T04:54:07.177Z,94927.89
2018-07-16T04:56:36.440Z,94935.75
2018-07-16T04:59:05.820Z,94931.36
2018-07-16T05:01:34.993Z,94939.12
2018-07-16T05:04:04.170Z,94932.19
2018-07-16T05:06:33.334Z,94931.84
2018-07-16T05:09:02.564Z,94926.91
2018-07-16T05:11:31.717Z,94923.30
2018-07-16T05:14:00.905Z,94917.56
2018-07-16T05:16:30.087Z,94920.62
2018-07-16T05:18:59.369Z,94913.09
2018-07-16T05:21:28.652Z,94914.78
2018-07-16T05:23:57.917Z,94915.98
2018-07-16T05:26:27.033Z,94918.25
2018-07-16T05:28:56.237Z,94908.63
2018-07-16T05:31:25.461Z,94909.92
2018-07-16T05:33:54.644Z,94910.06
2018-07-16T05:36:23.869Z,94912.95
2018-07-16T05:38:53.202Z,94906.42
2018-07-16T05:41:22.357Z,94900.05
2018-07-16T05:43:51.532Z,94901.34
2018-07-16T05:46:20.730Z,94893.72
2018-07-16T05:48:49.933Z,94898.06
2018-07-16T05:51:19.133Z,94901.13
2018-07-16T05:53:48.290Z,94899.39
2018-07-16T05:56:17.469Z,94901.14
2018-07-16T05:58:46.638Z,94893.70
2018-07-16T06:01:15.842Z,94893.89
2018-07-16T06:03:45.014Z,94891.48
2018-07-16T06:06:14.377Z,94897.53
2018-07-16T06:08:43.575Z,94894.27
2018-07-16T06:11:12.770Z,94892.69
2018-07-16T06:13:41.933Z,94892.70
2018-07-16T06:16:11.161Z,94883.40
2018-07-16T06:18:40.392Z,94885.95
2018-07-16T06:21:09.687Z,94886.52
2018-07-16T06:23:38.861Z,94880.09
2018-07-16T06:26:08.068Z,94883.34
2018-07-16T06:28:37.240Z,94883.98
2018-07-16T06:31:06.433Z,94877.31
2018-07-16T06:33:35.618Z,94880.82
2018-07-16T06:36:04.856Z,94881.11
2018-07-16T06:38:34.050Z,94882.02
2018-07-16T06:41:03.574Z,94877.22
2018-07-16T06:43:32.567Z,94880.11
2018-07-16T06:46:01.754Z,94886.27
2018-07-16T06:48:30.937Z,94882.70
2018-07-16T06:51:00.146Z,94886.75
2018-07-16T06:53:29.374Z,94883.98
2018-07-16T06:55:58.603Z,94883.96
2018-07-16T06:58:27.887Z,94885.27
2018-07-16T07:00:57.169Z,94877.39
2018-07-16T07:03:26.512Z,94881.75
2018-07-16T07:05:55.879Z,94887.09
2018-07-16T07:08:25.195Z,94882.86
2018-07-16T07:10:54.418Z,94879.47
2018-07-16T07:13:23.654Z,94880.62
2018-07-16T07:15:52.875Z,94878.73
2018-07-16T07:18:22.216Z,94877.42
2018-07-16T07:20:51.570Z,94881.41
2018-07-16T07:23:20.820Z,94881.61
2018-07-16T07:25:50.372Z,94881.29
2018-07-16T07:28:19.623Z,94882.17
2018-07-16T07:30:49.872Z,94883.27
2018-07-16T07:33:19.136Z,94881.94
2018-07-16T07:35:48.462Z,94877.08
2018-07-16T07:38:17.782Z,94869.63
2018-07-16T07:40:47.004Z,94871.52
2018-07-16T07:43:16.228Z,94872.57
2018-07-16T07:45:45.495Z,94870.78
2018-07-16T07:48:14.700Z,94871.17
2018-07-16T07:50:44.126Z,94863.45
2018-07-16T07:53:13.440Z,94870.94
2018-07-16T07:55:42.915Z,94867.53
2018-07-16T07:58:12.267Z,94870.77
2018-07-16T08:00:41.473Z,94875.39
2018-07-16T08:03:10.823Z,94870.37
2018-07-16T08:05:40.084Z,94860.90
2018-07-16T08:08:09.624Z,94863.81
2018-07-16T08:10:45.452Z,94864.86
2018-07-16T08:13:14.969Z,94856.31
2018-07-16T08:15:44.353Z,94863.35
2018-07-16T08:18:13.671Z,94859.81
2018-07-16T08:20:42.913Z,94859.70
2018-07-16T08:23:12.183Z,94861.06
2018-07-16T08:25:41.623Z,94860.15
2018-07-16T08:28:10.946Z,94868.04
2018-07-16T08:30:40.477Z,94865.11
2018-07-16T08:33:09.933Z,94865.13
2018-07-16T08:35:39.612Z,94865.41
2018-07-16T08:38:09.797Z,94860.56
2018-07-16T08:40:39.188Z,94861.77
2018-07-16T08:43:08.548Z,94858.80
2018-07-16T08:45:37.802Z,94863.47
2018-07-16T08:48:07.357Z,94863.08
2018-07-16T08:50:36.714Z,94860.17
2018-07-16T08:53:06.163Z,94858.80
2018-07-16T08:55:35.439Z,94864.05
2018-07-16T08:58:04.689Z,94872.20
2018-07-16T09:00:33.941Z,94862.52
2018-07-16T09:03:03.247Z,94862.75
2018-07-16T09:05:32.518Z,94866.59
2018-07-16T09:08:01.913Z,94865.74
2018-07-16T09:10:31.281Z,94857.73
2018-07-16T09:13:00.666Z,94870.12
2018-07-16T09:15:30.043Z,94867.48
2018-07-16T09:17:59.305Z,94869.30
2018-07-16T09:20:28.526Z,94867.20
2018-07-16T09:22:57.803Z,94866.43
2018-07-16T09:25:27.316Z,94859.84
2018-07-16T09:27:56.565Z,94862.37
2018-07-16T09:30:25.868Z,94863.30
2018-07-16T09:32:55.146Z,94858.93
2018-07-16T09:35:24.496Z,94856.27
2018-07-16T09:37:53.753Z,94862.41
2018-07-16T09:40:23.243Z,94862.88
2018-07-16T09:42:52.589Z,94855.48
2018-07-16T09:45:21.842Z,94860.85
2018-07-16T09:47:51.226Z,94857.97
2018-07-16T09:50:20.666Z,94856.05
2018-07-16T09:52:49.921Z,94852.58
2018-07-16T09:55:19.333Z,94850.14
2018-07-16T09:57:48.659Z,94852.66
2018-07-16T10:00:23.219Z,94853.59
2018-07-16T10:02:52.473Z,94848.83
2018-07-16T10:05:21.841Z,94858.20
2018-07-16T10:07:51.182Z,94855.34
2018-07-16T10:10:20.461Z,94857.77
2018-07-16T10:12:49.920Z,94845.87
2018-07-16T10:15:19.594Z,94848.80
2018-07-16T10:17:49.021Z,94845.57
2018-07-16T10:20:18.483Z,94847.19
2018-07-16T10:22:48.016Z,94844.93
2018-07-16T10:25:17.621Z,94846.40
2018-07-16T10:27:46.986Z,94839.88
2018-07-16T10:30:16.687Z,94845.21
2018-07-16T10:32:45.993Z,94847.56
2018-07-16T10:35:15.258Z,94842.04
2018-07-16T10:37:44.642Z,94842.86
2018-07-16T10:40:14.130Z,94840.97
2018-07-16T10:42:43.381Z,94844.03
2018-07-16T10:45:12.648Z,94839.73
2018-07-16T10:47:42.135Z,94842.44
2018-07-16T10:50:11.393Z,94840.47
2018-07-16T10:52:40.598Z,94833.35
2018-07-16T10:55:09.905Z,94836.39
2018-07-16T10:57:39.108Z,94831.28
2018-07-16T11:00:08.373Z,94836.75
2018-07-16T11:02:37.571Z,94837.72
2018-07-16T11:05:06.903Z,94832.95
2018-07-16T11:07:36.161Z,94827.20
2018-07-16T11:10:05.463Z,94829.24
2018-07-16T11:12:34.709Z,94828.24
2018-07-16T11:15:04.074Z,94825.30
2018-07-16T11:17:33.259Z,94827.49
2018-07-16T11:20:02.521Z,94823.28
2018-07-16T11:22:31.786Z,94823.27
2018-07-16T11:25:01.045Z,94819.03
2018-07-16T11:27:31.310Z,94821.32
2018-07-16T11:30:00.787Z,94822.79
2018-07-16T11:32:30.019Z,94823.89
2018-07-16T11:34:59.458Z,94828.81
2018-07-16T11:37:28.750Z,94829.45
2018-07-16T11:39:58.104Z,94829.14
2018-07-16T11:42:27.418Z,94822.14
2018-07-16T11:44:56.670Z,94824.59
2018-07-16T11:47:26.075Z,94827.59
2018-07-16T11:49:55.357Z,94825.33
2018-07-16T11:52:24.558Z,94824.95
2018-07-16T11:54:53.808Z,94824.80
2018-07-16T11:57:23.041Z,94820.09
2018-07-16T11:59:52.385Z,94821.61
2018-07-16T12:02:21.627Z,94818.13
2018-07-16T12:04:50.887Z,94815.30
2018-07-16T12:07:20.286Z,94814.77
2018-07-16T12:09:49.631Z,94819.72
2018-07-16T12:12:18.932Z,94803.97
2018-07-16T12:14:48.283Z,94806.00
2018-07-16T12:17:17.577Z,94801.20
2018-07-16T12:19:46.829Z,94801.22
2018-07-16T12:22:16.092Z,94799.22
2018-07-16T12:24:45.379Z,94789.12
2018-07-16T12:27:14.824Z,94782.78
2018-07-16T12:29:44.081Z,94774.79
2018-07-16T12:32:13.335Z,94776.34
2018-07-16T12:34:42.649Z,94771.43
2018-07-16T12:37:11.895Z,94769.95
2018-07-16T12:39:41.176Z,94774.03
2018-07-16T12:42:11.408Z,94771.25
2018-07-16T12:44:41.519Z,94770.54
2018-07-16T12:47:10.852Z,94771.02
2018-07-16T12:49:40.230Z,94768.19
2018-07-16T12:52:09.704Z,94761.89
2018-07-16T12:54:39.133Z,94754.72
2018-07-16T12:57:08.620Z,94756.55
2018-07-16T12:59:37.819Z,94751.95
2018-07-16T13:02:07.029Z,94746.34
2018-07-16T13:04:36.276Z,94742.77
2018-07-16T13:07:05.922Z,94734.34
2018-07-16T13:09:35.212Z,94735.46
2018-07-16T13:12:04.369Z,94733.20
2018-07-16T13:14:33.536Z,94734.34
2018-07-16T13:17:02.727Z,94734.17
2018-07-16T13:19:31.916Z,94732.66
2018-07-16T13:22:01.659Z,94734.87
2018-07-16T13:24:31.162Z,94727.34
2018-07-16T13:27:00.533Z,94729.16
2018-07-16T13:29:30.184Z,94733.38
2018-07-16T13:31:59.637Z,94733.05
2018-07-16T13:34:28.858Z,94736.11
2018-07-16T13:36:58.074Z,94733.09
2018-07-16T13:39:27.589Z,94731.30
2018-07-16T13:41:56.753Z,94729.87
2018-07-16T13:44:25.922Z,94726.44
2018-07-16T13:46:55.094Z,94727.56
2018-07-16T13:49:24.259Z,94721.82
2018-07-16T13:51:53.509Z,94718.10
2018-07-16T13:54:22.869Z,94727.80
2018-07-16T13:56:52.463Z,94723.56
2018-07-16T13:59:21.698Z,94726.94
2018-07-16T14:01:50.882Z,94722.22
2018-07-16T14:04:20.127Z,94719.73
2018-07-16T14:06:49.334Z,94712.16
2018-07-16T14:09:18.683Z,94715.48
2018-07-16T14:11:47.859Z,94717.40
2018-07-16T14:14:17.028Z,94715.42
2018-07-16T14:16:46.206Z,94711.62
2018-07-16T14:19:15.426Z,94714.38
2018-07-16T14:21:44.667Z,94717.41
2018-07-16T14:24:13.840Z,94717.59
2018-07-16T14:26:43.094Z,94720.25
2018-07-16T14:29:12.305Z,94718.17
2018-07-16T14:31:41.509Z,94718.65
2018-07-16T14:34:10.684Z,94718.23
2018-07-16T14:36:39.875Z,94713.40
2018-07-16T14:39:09.080Z,94717.47
2018-07-16T14:41:38.266Z,94713.94
2018-07-16T14:44:07.441Z,94715.44
2018-07-16T14:46:36.632Z,94716.67
2018-07-16T14:49:06.246Z,94717.63
2018-07-16T14:51:35.429Z,94718.77
2018-07-16T14:54:10.613Z,94717.14
2018-07-16T14:56:39.788Z,94718.56
2018-07-16T14:59:08.971Z,94712.47
2018-07-16T15:01:38.145Z,94707.55
2018-07-16T15:04:07.519Z,94704.91
2018-07-16T15:06:36.705Z,94702.69
2018-07-16T15:09:07.846Z,94702.92
2018-07-16T15:11:37.025Z,94700.62
2018-07-16T15:14:06.529Z,94700.64
2018-07-16T15:16:35.698Z,94705.98
2018-07-16T15:19:05.061Z,94704.70
2018-07-16T15:21:34.318Z,94701.84
2018-07-16T15:24:03.423Z,94703.84
2018-07-16T15:26:32.601Z,94705.62
2018-07-16T15:29:01.770Z,94698.56
2018-07-16T15:31:30.939Z,94698.70
2018-07-16T15:34:00.129Z,94709.22
2018-07-16T15:36:29.336Z,94710.98
2018-07-16T15:38:58.534Z,94705.31
2018-07-16T15:41:27.844Z,94703.50
2018-07-16T15:43:57.023Z,94707.03
2018-07-16T15:46:26.214Z,94716.63
2018-07-16T15:48:55.419Z,94719.09
2018-07-16T15:51:24.611Z,94715.09
2018-07-16T15:53:53.918Z,94717.74
2018-07-16T15:56:23.108Z,94717.29
2018-07-16T15:58:52.294Z,94716.94
2018-07-16T16:01:21.474Z,94720.50
2018-07-16T16:03:50.769Z,94722.09
2018-07-16T16:06:19.941Z,94718.87
2018-07-16T16:08:49.125Z,94717.93
2018-07-16T16:11:18.287Z,94721.66
2018-07-16T16:13:47.522Z,94726.20
2018-07-16T16:16:16.755Z,94735.94
2018-07-16T16:18:45.939Z,94733.76
2018-07-16T16:21:15.131Z,94736.64
2018-07-16T16:23:44.293Z,94741.15
2018-07-16T16:26:13.572Z,94732.39
2018-07-16T16:28:42.744Z,94740.73
2018-07-16T16:31:11.944Z,94736.31
2018-07-16T16:33:41.117Z,94734.33
2018-07-16T16:36:10.302Z,94732.26
2018-07-16T16:38:39.520Z,94727.08
2018-07-16T16:41:09.126Z,94724.42
2018-07-16T16:43:38.331Z,94721.92
2018-07-16T16:46:07.630Z,94723.38
2018-07-16T16:48:36.814Z,94717.48
2018-07-16T16:51:05.977Z,94714.59
2018-07-16T16:53:35.145Z,94711.27
2018-07-16T16:56:04.449Z,94717.23
2018-07-16T16:58:34.082Z,94727.72
2018-07-16T17:01:03.181Z,94723.30
2018-07-16T17:03:32.473Z,94725.60
2018-07-16T17:06:02.673Z,94725.36
2018-07-16T17:08:31.850Z,94724.14
2018-07-16T17:11:01.058Z,94716.23
2018-07-16T17:13:30.217Z,94711.52
2018-07-16T17:15:59.457Z,94719.42
2018-07-16T17:18:28.709Z,94717.00
2018-07-16T17:20:57.917Z,94717.24
2018-07-16T17:23:27.079Z,94717.57
2018-07-16T17:25:56.293Z,94718.09
2018-07-16T17:28:25.478Z,94715.47
2018-07-16T17:30:54.650Z,94718.37
2018-07-16T17:33:23.820Z,94716.89
2018-07-16T17:35:53.308Z,94715.81
2018-07-16T17:38:22.505Z,94721.73
2018-07-16T17:40:52.124Z,94720.61
2018-07-16T17:43:21.747Z,94718.23
2018-07-16T17:45:51.039Z,94719.52
2018-07-16T17:48:20.229Z,94720.98
2018-07-16T17:50:49.447Z,94725.78
2018-07-16T17:53:18.700Z,94723.60
2018-07-16T17:55:47.859Z,94722.08
2018-07-16T17:58:17.042Z,94723.38
2018-07-16T18:00:46.214Z,94729.55
2018-07-16T18:03:15.403Z,94725.84
2018-07-16T18:05:44.582Z,94721.17
2018-07-16T18:08:13.764Z,94729.44
2018-07-16T18:10:43.011Z,94738.82
2018-07-16T18:13:12.228Z,94737.67
2018-07-16T18:15:41.398Z,94736.03
2018-07-16T18:18:10.630Z,94736.11
2018-07-16T18:20:39.803Z,94746.70
2018-07-16T18:23:09.046Z,94746.81
2018-07-16T18:25:38.253Z,94752.77
2018-07-16T18:28:07.446Z,94755.53
2018-07-16T18:30:36.619Z,94751.72
2018-07-16T18:33:05.933Z,94753.82
2018-07-16T18:35:35.156Z,94752.05
2018-07-16T18:38:04.314Z,94760.85
2018-07-16T18:40:33.490Z,94763.56
2018-07-16T18:43:02.720Z,94758.50
2018-07-16T18:45:31.929Z,94761.23
2018-07-16T18:48:01.096Z,94764.03
2018-07-16T18:50:30.271Z,94765.27
2018-07-16T18:52:59.472Z,94762.93
2018-07-16T18:55:28.784Z,94769.45
2018-07-16T18:57:57.930Z,94764.60
2018-07-16T19:00:27.185Z,94762.74
2018-07-16T19:02:56.436Z,94764.84
2018-07-16T19:05:25.673Z,94765.56
2018-07-16T19:11:29.820Z,94767.73
2018-07-16T19:13:58.989Z,94765.36
2018-07-16T19:16:28.175Z,94768.33
2018-07-16T19:18:57.377Z,94763.70
2018-07-16T19:21:26.586Z,94768.88
2018-07-16T19:24:23.840Z,94766.81
2018-07-16T19:26:53.004Z,94769.09
2018-07-16T19:29:22.221Z,94771.84
2018-07-16T19:31:51.436Z,94772.49
2018-07-16T19:34:20.656Z,94770.12
2018-07-16T19:36:49.847Z,94778.45
2018-07-16T19:39:19.109Z,94777.27
2018-07-16T19:41:48.240Z,94779.35
2018-07-16T19:44:17.473Z,94782.84
2018-07-16T19:46:46.726Z,94778.17
2018-07-16T19:49:15.924Z,94782.70
2018-07-16T19:51:45.097Z,94778.42
2018-07-16T19:54:14.301Z,94784.06
2018-07-16T19:56:43.537Z,94782.61
2018-07-16T19:59:12.861Z,94788.10
2018-07-16T20:01:42.392Z,94791.37
2018-07-16T20:04:11.621Z,94798.95
2018-07-16T20:06:40.848Z,94798.75
2018-07-16T20:09:10.325Z,94797.60
2018-07-16T20:11:39.669Z,94795.30
2018-07-16T20:14:09.017Z,94797.79
2018-07-16T20:16:43.077Z,94801.46
2018-07-16T20:19:13.325Z,94802.56
2018-07-16T20:21:42.776Z,94803.34
2018-07-16T20:24:12.001Z,94812.64
2018-07-16T20:26:41.185Z,94804.84
2018-07-16T20:29:10.663Z,94806.91
2018-07-16T20:31:39.874Z,94808.38
2018-07-16T20:34:09.361Z,94805.59
2018-07-16T20:36:38.662Z,94813.17
2018-07-16T20:39:08.964Z,94814.36
2018-07-16T20:41:38.203Z,94815.67
2018-07-16T20:44:07.389Z,94822.06
2018-07-16T20:46:36.718Z,94813.41
2018-07-16T20:49:06.028Z,94816.15
2018-07-16T20:51:35.204Z,94817.36
2018-07-16T20:54:04.459Z,94823.31
2018-07-16T20:56:33.640Z,94817.80
2018-07-16T20:59:02.879Z,94824.01
2018-07-16T21:01:32.082Z,94821.38
2018-07-16T21:04:01.304Z,94824.41
2018-07-16T21:06:30.497Z,94828.72
2018-07-16T21:08:59.770Z,94830.23
2018-07-16T21:11:29.005Z,94828.69
2018-07-16T21:13:58.441Z,94830.65
2018-07-16T21:16:27.681Z,94831.10
2018-07-16T21:18:56.968Z,94838.41
2018-07-16T21:21:26.161Z,94838.73
2018-07-16T21:23:55.361Z,94834.98
2018-07-16T21:26:24.628Z,94844.78
2018-07-16T21:28:53.893Z,94848.75
2018-07-16T21:31:23.124Z,94849.73
2018-07-16T21:33:52.360Z,94848.72
2018-07-16T21:36:21.548Z,94849.40
2018-07-16T21:38:50.777Z,94849.95
2018-07-16T21:41:19.990Z,94850.64
2018-07-16T21:43:49.222Z,94845.30
2018-07-16T21:46:18.405Z,94850.44
2018-07-16T21:48:47.638Z,94854.98
2018-07-16T21:51:16.892Z,94851.66
2018-07-16T21:53:46.102Z,94851.41
2018-07-16T21:56:15.307Z,94853.62
2018-07-16T21:58:44.529Z,94851.73
2018-07-16T22:01:13.709Z,94855.23
2018-07-16T22:03:42.936Z,94853.34
2018-07-16T22:06:12.181Z,94852.36
2018-07-16T22:08:41.392Z,94856.32
2018-07-16T22:11:10.661Z,94859.62
2018-07-16T22:13:39.972Z,94864.90
2018-07-16T22:16:09.236Z,94861.01
2018-07-16T22:18:38.485Z,94856.00
2018-07-16T22:21:07.660Z,94859.48
2018-07-16T22:23:36.825Z,94857.09
2018-07-16T22:26:06.116Z,94854.61
2018-07-16T22:28:35.400Z,94860.86
2018-07-16T22:31:04.583Z,94855.30
2018-07-16T22:33:33.758Z,94855.68
2018-07-16T22:36:02.956Z,94849.81
2018-07-16T22:38:32.119Z,94854.63
2018-07-16T22:41:01.277Z,94853.91
2018-07-16T22:43:30.457Z,94853.50
2018-07-16T22:45:59.613Z,94859.08
2018-07-16T22:48:28.772Z,94861.09
2018-07-16T22:50:57.946Z,94862.09
2018-07-16T22:53:27.144Z,94860.98
2018-07-16T22:55:56.337Z,94862.09
2018-07-16T22:58:25.497Z,94861.09
2018-07-16T23:00:54.645Z,94858.69
2018-07-16T23:03:23.860Z,94858.75
2018-07-16T23:05:53.093Z,94854.84
2018-07-16T23:08:22.278Z,94855.03
2018-07-16T23:10:51.416Z,94852.24
2018-07-16T23:13:20.616Z,94853.56
2018-07-16T23:15:49.785Z,94853.70
2018-07-16T23:18:18.980Z,94849.61
2018-07-16T23:20:48.137Z,94852.08
2018-07-16T23:23:17.297Z,94850.39
2018-07-16T23:25:46.449Z,94852.17
2018-07-16T23:28:15.668Z,94852.27
2018-07-16T23:30:44.849Z,94850.69
2018-07-16T23:33:14.020Z,94846.04
2018-07-16T23:35:43.205Z,94849.78
2018-07-16T23:38:12.380Z,94857.97
2018-07-16T23:40:41.537Z,94854.87
2018-07-16T23:43:10.685Z,94855.63
2018-07-16T23:45:39.844Z,94857.51
2018-07-16T23:48:09.041Z,94859.72
2018-07-16T23:50:38.334Z,94859.30
2018-07-16T23:53:07.485Z,94860.02
2018-07-16T23:55:36.697Z,94863.23
2018-07-16T23:58:05.860Z,94855.24
